createdAt,value
2019-04-18T00:00:29.660Z,10.05
2019-04-18T00:01:29.036Z,10.07
2019-04-18T00:02:29.064Z,10.17
2019-04-18T00:03:29.093Z,10.07
2019-04-18T00:04:31.943Z,10.11
2019-04-18T00:05:29.148Z,10.04
2019-04-18T00:06:29.178Z,10.07
2019-04-18T00:07:29.207Z,10.07
2019-04-18T00:08:29.234Z,10.05
2019-04-18T00:09:29.263Z,10.05
2019-04-18T00:10:29.291Z,10.11
2019-04-18T00:11:29.326Z,10.05
2019-04-18T00:12:29.348Z,10.14
2019-04-18T00:13:29.507Z,10.07
2019-04-18T00:14:48.257Z,9.97
2019-04-18T00:15:38.861Z,9.97
2019-04-18T00:16:29.462Z,9.84
2019-04-18T00:17:30.978Z,9.83
2019-04-18T00:18:29.519Z,9.93
2019-04-18T00:19:29.543Z,9.94
2019-04-18T00:20:29.574Z,10.05
2019-04-18T00:21:29.605Z,10.11
2019-04-18T00:22:29.631Z,10.08
2019-04-18T00:23:30.046Z,10.18
2019-04-18T00:24:29.992Z,10.04
2019-04-18T00:25:29.739Z,10.08
2019-04-18T00:26:29.747Z,9.99
2019-04-18T00:27:30.099Z,9.87
2019-04-18T00:28:29.823Z,9.86
2019-04-18T00:29:29.851Z,9.87
2019-04-18T00:30:30.377Z,9.81
2019-04-18T00:31:30.107Z,9.68
2019-04-18T00:32:29.937Z,9.68
2019-04-18T00:33:30.167Z,9.56
2019-04-18T00:34:30.503Z,9.57
2019-04-18T00:35:30.024Z,9.57
2019-04-18T00:36:30.354Z,9.57
2019-04-18T00:37:30.099Z,9.66
2019-04-18T00:38:31.162Z,9.65
2019-04-18T00:39:31.450Z,9.53
2019-04-18T00:40:30.162Z,9.39
2019-04-18T00:41:30.677Z,9.43
2019-04-18T00:42:30.223Z,9.50
2019-04-18T00:43:30.224Z,9.46
2019-04-18T00:44:32.152Z,9.50
2019-04-18T00:45:30.279Z,9.57
2019-04-18T00:46:30.310Z,9.66
2019-04-18T00:47:30.336Z,9.83
2019-04-18T00:48:30.364Z,9.74
2019-04-18T00:49:33.590Z,9.65
2019-04-18T00:50:30.421Z,9.48
2019-04-18T00:51:30.493Z,9.56
2019-04-18T00:52:30.477Z,9.48
2019-04-18T00:53:30.505Z,9.51
2019-04-18T00:54:30.533Z,9.56
2019-04-18T00:55:30.563Z,9.56
2019-04-18T00:56:30.588Z,9.57
2019-04-18T00:57:30.618Z,9.58
2019-04-18T00:58:30.648Z,9.58
2019-04-18T00:59:30.672Z,9.54
2019-04-18T01:00:32.284Z,9.54
2019-04-18T01:01:30.731Z,9.53
2019-04-18T01:02:30.758Z,9.48
2019-04-18T01:03:30.785Z,9.53
2019-04-18T01:04:34.041Z,9.48
2019-04-18T01:05:30.841Z,9.60
2019-04-18T01:06:30.870Z,9.68
2019-04-18T01:07:30.898Z,9.75
2019-04-18T01:08:30.957Z,9.90
2019-04-18T01:09:30.954Z,9.84
2019-04-18T01:10:30.983Z,9.78
2019-04-18T01:11:31.010Z,9.61
2019-04-18T01:12:31.982Z,9.68
2019-04-18T01:13:31.067Z,9.74
2019-04-18T01:14:31.095Z,9.74
2019-04-18T01:15:31.121Z,9.79
2019-04-18T01:16:31.151Z,9.76
2019-04-18T01:17:34.144Z,9.79
2019-04-18T01:18:31.207Z,9.71
2019-04-18T01:19:31.234Z,9.71
2019-04-18T01:20:31.262Z,9.57
2019-04-18T01:21:34.040Z,9.58
2019-04-18T01:23:31.348Z,9.53
2019-04-18T01:24:31.379Z,9.56
2019-04-18T01:25:32.192Z,9.61
2019-04-18T01:26:31.434Z,9.58
2019-04-18T01:27:31.459Z,9.54
2019-04-18T01:28:31.487Z,9.47
2019-04-18T01:29:31.517Z,9.46
2019-04-18T01:30:31.544Z,9.31
2019-04-18T01:31:31.572Z,9.40
2019-04-18T01:32:31.600Z,9.46
2019-04-18T01:33:32.863Z,9.28
2019-04-18T01:34:41.573Z,9.32
2019-04-18T01:35:31.683Z,9.39
2019-04-18T01:36:31.711Z,9.33
2019-04-18T01:37:34.091Z,9.54
2019-04-18T01:38:31.769Z,9.60
2019-04-18T01:39:31.805Z,9.39
2019-04-18T01:40:31.826Z,9.46
2019-04-18T01:41:31.853Z,9.42
2019-04-18T01:42:31.882Z,9.29
2019-04-18T01:43:34.023Z,9.26
2019-04-18T01:44:31.937Z,9.28
2019-04-18T01:45:31.964Z,9.35
2019-04-18T01:46:31.993Z,9.35
2019-04-18T01:47:32.022Z,9.47
2019-04-18T01:48:34.793Z,9.40
2019-04-18T01:49:32.077Z,9.39
2019-04-18T01:50:32.105Z,9.28
2019-04-18T01:51:32.132Z,9.24
2019-04-18T01:52:32.162Z,9.23
2019-04-18T01:53:33.619Z,9.31
2019-04-18T01:54:32.219Z,9.33
2019-04-18T01:55:32.248Z,9.18
2019-04-18T01:56:32.273Z,8.98
2019-04-18T01:57:32.302Z,8.92
2019-04-18T01:58:34.024Z,8.86
2019-04-18T01:59:32.362Z,8.81
2019-04-18T02:00:32.385Z,8.71
2019-04-18T02:01:32.413Z,8.65
2019-04-18T02:02:32.442Z,8.47
2019-04-18T02:03:33.848Z,8.53
2019-04-18T02:04:32.497Z,8.38
2019-04-18T02:05:32.527Z,8.37
2019-04-18T02:06:32.554Z,8.34
2019-04-18T02:07:32.581Z,8.36
2019-04-18T02:08:32.611Z,8.38
2019-04-18T02:09:32.640Z,8.55
2019-04-18T02:10:32.670Z,8.65
2019-04-18T02:11:34.799Z,8.48
2019-04-18T02:12:32.729Z,8.48
2019-04-18T02:13:32.751Z,8.50
2019-04-18T02:14:32.778Z,8.45
2019-04-18T02:15:33.114Z,8.50
2019-04-18T02:16:32.833Z,8.63
2019-04-18T02:17:32.861Z,8.63
2019-04-18T02:18:32.890Z,8.52
2019-04-18T02:19:32.917Z,8.41
2019-04-18T02:20:34.724Z,8.43
2019-04-18T02:21:32.973Z,8.36
2019-04-18T02:22:33.001Z,8.34
2019-04-18T02:23:33.028Z,8.34
2019-04-18T02:24:33.076Z,8.25
2019-04-18T02:25:41.635Z,8.25
2019-04-18T02:26:33.113Z,8.12
2019-04-18T02:27:33.142Z,8.08
2019-04-18T02:28:33.167Z,8.00
2019-04-18T02:29:33.197Z,8.02
2019-04-18T02:30:33.240Z,7.89
2019-04-18T02:31:33.255Z,7.87
2019-04-18T02:32:36.490Z,7.82
2019-04-18T02:33:33.308Z,7.67
2019-04-18T02:34:33.336Z,7.82
2019-04-18T02:35:33.364Z,7.75
2019-04-18T02:36:33.947Z,7.74
2019-04-18T02:37:33.419Z,7.85
2019-04-18T02:38:33.650Z,7.64
2019-04-18T02:39:33.473Z,7.61
2019-04-18T02:40:34.937Z,7.69
2019-04-18T02:41:33.530Z,7.71
2019-04-18T02:42:33.568Z,7.64
2019-04-18T02:43:33.590Z,7.74
2019-04-18T02:44:33.613Z,7.68
2019-04-18T02:45:34.886Z,7.69
2019-04-18T02:46:33.670Z,7.77
2019-04-18T02:47:33.696Z,7.82
2019-04-18T02:48:33.728Z,7.69
2019-04-18T02:49:33.753Z,7.60
2019-04-18T02:50:33.781Z,7.71
2019-04-18T02:51:33.807Z,7.71
2019-04-18T02:52:33.839Z,7.69
2019-04-18T02:53:33.863Z,7.60
2019-04-18T02:54:33.892Z,7.67
2019-04-18T02:55:33.918Z,7.63
2019-04-18T02:56:33.954Z,7.61
2019-04-18T02:57:33.975Z,7.60
2019-04-18T02:58:37.323Z,7.46
2019-04-18T03:01:04.148Z,7.48
2019-04-18T03:02:04.157Z,7.34
2019-04-18T03:03:05.877Z,7.25
2019-04-18T03:04:04.211Z,7.17
2019-04-18T03:05:04.241Z,7.17
2019-04-18T03:06:04.265Z,7.16
2019-04-18T03:07:04.298Z,6.98
2019-04-18T03:08:04.320Z,6.98
2019-04-18T03:09:04.348Z,6.88
2019-04-18T03:10:08.770Z,6.92
2019-04-18T03:11:04.404Z,6.85
2019-04-18T03:12:04.430Z,6.97
2019-04-18T03:13:05.062Z,7.02
2019-04-18T03:14:08.042Z,7.16
2019-04-18T03:15:05.089Z,7.15
2019-04-18T03:16:08.337Z,7.15
2019-04-18T03:17:04.569Z,7.07
2019-04-18T03:18:05.270Z,6.98
2019-04-18T03:19:05.571Z,7.07
2019-04-18T03:20:04.650Z,7.02
2019-04-18T03:21:04.677Z,7.03
2019-04-18T03:22:04.705Z,6.94
2019-04-18T03:23:05.893Z,7.03
2019-04-18T03:24:04.761Z,6.89
2019-04-18T03:25:04.791Z,6.95
2019-04-18T03:26:04.814Z,6.80
2019-04-18T03:27:04.844Z,6.79
2019-04-18T03:28:09.985Z,6.80
2019-04-18T03:29:04.896Z,6.70
2019-04-18T03:30:05.047Z,6.79
2019-04-18T03:31:17.647Z,6.81
2019-04-18T03:32:05.449Z,6.84
2019-04-18T03:33:15.741Z,6.85
2019-04-18T03:34:07.707Z,6.69
2019-04-18T03:35:05.059Z,6.85
2019-04-18T03:36:05.087Z,6.88
2019-04-18T03:37:06.319Z,6.76
2019-04-18T03:38:07.546Z,6.74
2019-04-18T03:39:05.171Z,6.77
2019-04-18T03:40:05.195Z,6.79
2019-04-18T03:41:05.223Z,6.73
2019-04-18T03:42:05.251Z,6.84
2019-04-18T03:43:07.018Z,6.92
2019-04-18T03:44:05.302Z,6.74
2019-04-18T03:45:05.352Z,6.71
2019-04-18T03:46:05.435Z,6.56
2019-04-18T03:47:08.597Z,6.51
2019-04-18T03:48:06.493Z,6.40
2019-04-18T03:49:08.938Z,6.51
2019-04-18T03:50:05.467Z,6.49
2019-04-18T03:51:07.022Z,6.56
2019-04-18T03:55:06.574Z,6.87
2019-04-18T03:56:06.547Z,6.89
2019-04-18T03:57:06.792Z,6.76
2019-04-18T03:58:09.095Z,6.79
2019-04-18T03:59:06.783Z,6.67
2019-04-18T04:00:06.653Z,6.79
2019-04-18T04:01:07.104Z,6.81
2019-04-18T04:02:06.957Z,6.79
2019-04-18T04:03:11.222Z,6.76
2019-04-18T04:04:06.761Z,6.69
2019-04-18T04:05:06.791Z,6.61
2019-04-18T04:06:16.701Z,6.64
2019-04-18T04:07:06.841Z,6.59
2019-04-18T04:08:07.139Z,6.70
2019-04-18T04:09:07.323Z,6.71
2019-04-18T04:10:12.132Z,6.58
2019-04-18T04:11:06.948Z,6.64
2019-04-18T04:12:06.977Z,6.71
2019-04-18T04:13:07.208Z,6.70
2019-04-18T04:14:08.874Z,6.77
2019-04-18T04:15:14.647Z,6.71
2019-04-18T04:16:07.083Z,6.67
2019-04-18T04:17:07.245Z,6.54
2019-04-18T04:18:10.027Z,6.48
2019-04-18T04:19:07.434Z,6.40
2019-04-18T04:20:07.191Z,6.25
2019-04-18T04:21:07.512Z,6.31
2019-04-18T04:22:10.050Z,6.34
2019-04-18T04:23:07.395Z,6.44
2019-04-18T04:24:07.542Z,6.31
2019-04-18T04:25:08.637Z,6.25
2019-04-18T04:26:07.678Z,6.14
2019-04-18T04:27:07.651Z,6.11
2019-04-18T04:28:07.404Z,6.03
2019-04-18T04:29:07.797Z,6.09
2019-04-18T04:30:13.262Z,6.04
2019-04-18T04:31:07.488Z,6.06
2019-04-18T04:32:07.511Z,6.11
2019-04-18T04:33:07.864Z,6.14
2019-04-18T04:34:10.084Z,6.37
2019-04-18T04:35:07.918Z,6.41
2019-04-18T04:36:20.661Z,6.56
2019-04-18T04:37:09.591Z,6.66
2019-04-18T04:38:08.170Z,6.55
2019-04-18T04:39:07.706Z,6.71
2019-04-18T04:40:07.926Z,6.74
2019-04-18T05:03:05.660Z,7.03
2019-04-18T05:04:05.683Z,7.06
2019-04-18T05:05:05.871Z,7.25
2019-04-18T05:06:05.736Z,7.27
2019-04-18T05:07:05.764Z,7.25
2019-04-18T05:08:05.790Z,7.34
2019-04-18T05:09:05.816Z,7.40
2019-04-18T05:10:06.416Z,7.37
2019-04-18T05:11:05.869Z,7.32
2019-04-18T05:12:06.374Z,7.34
2019-04-18T05:13:09.313Z,7.24
2019-04-18T05:14:05.951Z,7.25
2019-04-18T05:15:09.463Z,7.31
2019-04-18T05:16:06.002Z,7.17
2019-04-18T05:24:41.865Z,6.88
2019-04-18T05:25:41.890Z,6.87
2019-04-18T05:26:41.916Z,6.91
2019-04-18T05:27:41.942Z,7.02
2019-04-18T05:28:41.977Z,7.03
2019-04-18T05:29:42.006Z,7.09
2019-04-18T05:30:42.022Z,7.17
2019-04-18T05:31:42.050Z,7.40
2019-04-18T05:32:42.849Z,7.50
2019-04-18T05:33:42.114Z,7.63
2019-04-18T05:34:42.135Z,7.69
2019-04-18T05:35:42.158Z,7.72
2019-04-18T05:36:55.310Z,7.80
2019-04-18T05:37:45.177Z,7.77
2019-04-18T05:38:42.240Z,7.98
2019-04-18T05:39:42.267Z,8.05
2019-04-18T05:40:42.295Z,8.22
2019-04-18T05:41:43.015Z,8.19
2019-04-18T05:42:42.348Z,8.29
2019-04-18T05:43:42.374Z,8.34
2019-04-18T05:44:42.410Z,8.56
2019-04-18T05:45:42.662Z,8.59
2019-04-18T05:46:42.456Z,8.63
2019-04-18T05:47:42.576Z,8.66
2019-04-18T05:48:42.515Z,8.71
2019-04-18T05:49:42.540Z,8.70
2019-04-18T05:50:45.678Z,8.71
2019-04-18T05:51:42.594Z,8.79
2019-04-18T05:52:42.620Z,8.92
2019-04-18T05:53:42.655Z,8.80
2019-04-18T05:54:46.175Z,8.89
2019-04-18T05:55:42.705Z,8.92
2019-04-18T05:56:42.734Z,8.94
2019-04-18T05:57:42.757Z,8.91
2019-04-18T05:58:43.368Z,8.91
2019-04-18T05:59:42.816Z,9.10
2019-04-18T06:00:42.863Z,8.96
2019-04-18T06:01:42.870Z,8.99
2019-04-18T06:02:42.896Z,9.14
2019-04-18T06:03:42.923Z,9.14
2019-04-18T06:04:42.951Z,9.17
2019-04-18T06:05:42.978Z,9.26
2019-04-18T06:06:45.379Z,9.28
2019-04-18T06:07:43.034Z,9.29
2019-04-18T06:08:43.062Z,9.35
2019-04-18T06:09:43.322Z,9.40
2019-04-18T06:10:43.119Z,9.43
2019-04-18T06:11:43.245Z,9.48
2019-04-18T06:12:43.176Z,9.57
2019-04-18T06:13:43.203Z,9.71
2019-04-18T06:14:43.231Z,9.68
2019-04-18T06:15:43.257Z,9.66
2019-04-18T06:16:43.287Z,9.86
2019-04-18T06:17:43.313Z,9.84
2019-04-18T06:18:43.510Z,9.93
2019-04-18T06:19:43.369Z,9.93
2019-04-18T06:20:43.398Z,10.02
2019-04-18T06:21:43.428Z,10.07
2019-04-18T06:22:43.455Z,10.14
2019-04-18T06:23:43.485Z,10.18
2019-04-18T06:24:43.512Z,10.30
2019-04-18T06:25:43.667Z,10.29
2019-04-18T06:26:43.568Z,10.33
2019-04-18T06:27:43.597Z,10.42
2019-04-18T06:28:43.624Z,10.44
2019-04-18T06:29:43.652Z,10.56
2019-04-18T06:30:43.681Z,10.51
2019-04-18T06:31:43.721Z,10.63
2019-04-18T06:32:43.737Z,10.55
2019-04-18T06:33:43.766Z,10.63
2019-04-18T06:34:43.798Z,10.64
2019-04-18T06:35:46.403Z,10.86
2019-04-18T06:36:43.851Z,10.88
2019-04-18T06:37:44.738Z,10.99
2019-04-18T06:38:43.911Z,11.10
2019-04-18T06:39:43.936Z,11.18
2019-04-18T06:40:43.968Z,11.21
2019-04-18T06:41:43.995Z,11.28
2019-04-18T06:42:48.918Z,11.43
2019-04-18T06:43:44.053Z,11.39
2019-04-18T06:44:44.084Z,11.46
2019-04-18T06:45:44.111Z,11.46
2019-04-18T06:46:44.141Z,11.52
2019-04-18T06:47:44.169Z,11.67
2019-04-18T06:48:44.199Z,11.75
2019-04-18T06:49:47.647Z,11.78
2019-04-18T06:50:44.259Z,12.01
2019-04-18T06:51:44.292Z,11.94
2019-04-18T06:52:44.317Z,12.09
2019-04-18T06:53:46.594Z,12.19
2019-04-18T06:54:44.374Z,12.31
2019-04-18T06:55:44.404Z,12.31
2019-04-18T06:56:46.111Z,12.34
2019-04-18T06:57:44.464Z,12.45
2019-04-18T06:58:49.349Z,12.52
2019-04-18T06:59:44.524Z,12.59
2019-04-18T07:00:44.551Z,12.74
2019-04-18T07:01:44.585Z,12.83
2019-04-18T07:02:45.835Z,12.75
2019-04-18T07:03:44.641Z,12.90
2019-04-18T07:04:44.671Z,13.00
2019-04-18T07:05:44.752Z,13.11
2019-04-18T07:06:44.897Z,13.19
2019-04-18T07:07:44.761Z,13.28
2019-04-18T07:08:45.510Z,13.39
2019-04-18T07:09:54.581Z,13.63
2019-04-18T07:10:56.421Z,13.78
2019-04-18T07:11:44.882Z,13.87
2019-04-18T07:12:48.018Z,14.03
2019-04-18T07:13:44.963Z,14.14
2019-04-18T07:14:44.972Z,14.17
2019-04-18T07:15:45.004Z,14.29
2019-04-18T07:16:45.944Z,14.28
2019-04-18T07:17:45.065Z,14.42
2019-04-18T07:18:45.096Z,14.62
2019-04-18T07:19:45.126Z,14.64
2019-04-18T07:20:51.436Z,14.68
2019-04-18T07:21:45.188Z,14.78
2019-04-18T07:22:45.220Z,14.78
2019-04-18T07:23:45.250Z,14.91
2019-04-18T07:24:45.279Z,14.92
2019-04-18T07:25:45.312Z,14.96
2019-04-18T07:26:45.343Z,15.14
2019-04-18T07:27:47.257Z,15.09
2019-04-18T07:28:49.715Z,15.11
2019-04-18T07:29:45.434Z,15.20
2019-04-18T07:30:45.466Z,15.31
2019-04-18T07:31:45.498Z,15.36
2019-04-18T07:32:45.528Z,15.39
2019-04-18T07:33:45.558Z,15.41
2019-04-18T07:34:45.593Z,15.43
2019-04-18T07:35:45.622Z,15.46
2019-04-18T07:36:45.654Z,15.56
2019-04-18T07:37:47.902Z,15.60
2019-04-18T07:38:45.717Z,15.75
2019-04-18T07:39:45.769Z,15.78
2019-04-18T07:41:45.838Z,15.97
2019-04-18T07:42:45.845Z,16.07
2019-04-18T07:43:45.876Z,16.00
2019-04-18T07:44:45.905Z,16.14
2019-04-18T07:45:45.961Z,16.14
2019-04-18T07:46:45.972Z,16.27
2019-04-18T07:47:46.007Z,16.38
2019-04-18T07:48:46.034Z,16.25
2019-04-18T07:49:46.067Z,15.83
2019-04-18T07:50:46.100Z,15.56
2019-04-18T07:51:46.130Z,15.49
2019-04-18T07:52:46.918Z,15.35
2019-04-18T07:53:46.195Z,15.28
2019-04-18T07:54:46.229Z,15.27
2019-04-18T07:55:46.259Z,15.27
2019-04-18T07:56:46.293Z,15.23
2019-04-18T07:57:46.327Z,15.21
2019-04-18T07:58:46.357Z,15.14
2019-04-18T07:59:46.388Z,15.17
2019-04-18T08:00:46.421Z,15.07
2019-04-18T08:01:46.453Z,15.07
2019-04-18T08:02:46.486Z,15.28
2019-04-18T08:03:54.583Z,15.31
2019-04-18T08:04:46.550Z,15.49
2019-04-18T08:05:46.584Z,15.53
2019-04-18T08:06:46.615Z,15.51
2019-04-18T08:07:46.649Z,15.56
2019-04-18T08:08:46.682Z,15.72
2019-04-18T08:09:46.714Z,15.78
2019-04-18T08:10:46.745Z,15.86
2019-04-18T08:11:46.777Z,15.76
2019-04-18T08:12:46.810Z,15.74
2019-04-18T08:13:46.911Z,15.74
2019-04-18T08:14:46.875Z,15.80
2019-04-18T08:15:46.908Z,15.90
2019-04-18T08:16:46.940Z,15.94
2019-04-18T08:17:49.195Z,15.96
2019-04-18T08:18:47.006Z,16.08
2019-04-18T08:19:47.040Z,16.12
2019-04-18T08:20:47.073Z,16.11
2019-04-18T08:21:47.108Z,16.17
2019-04-18T08:22:47.137Z,16.15
2019-04-18T08:23:51.197Z,16.12
2019-04-18T08:24:47.202Z,16.17
2019-04-18T08:25:47.235Z,16.05
2019-04-18T08:26:47.271Z,16.07
2019-04-18T08:27:47.300Z,16.34
2019-04-18T08:28:47.333Z,16.31
2019-04-18T08:29:47.366Z,16.28
2019-04-18T08:30:47.400Z,16.38
2019-04-18T08:31:47.432Z,16.53
2019-04-18T08:32:47.466Z,16.57
2019-04-18T08:33:47.523Z,16.79
2019-04-18T08:34:47.568Z,16.93
2019-04-18T08:35:47.587Z,16.88
2019-04-18T08:36:47.828Z,16.83
2019-04-18T08:37:47.631Z,16.98
2019-04-18T08:38:47.666Z,17.03
2019-04-18T08:39:49.091Z,17.03
2019-04-18T08:40:51.232Z,16.89
2019-04-18T08:41:47.765Z,17.15
2019-04-18T08:42:47.798Z,17.12
2019-04-18T08:43:47.832Z,17.25
2019-04-18T08:44:47.865Z,17.21
2019-04-18T08:45:47.899Z,17.12
2019-04-18T08:46:47.934Z,17.08
2019-04-18T08:47:49.376Z,17.11
2019-04-18T08:48:48.000Z,17.04
2019-04-18T08:49:48.033Z,17.07
2019-04-18T08:50:49.013Z,17.11
2019-04-18T08:51:48.101Z,17.04
2019-04-18T08:52:48.266Z,16.94
2019-04-18T08:53:49.524Z,16.93
2019-04-18T08:54:48.238Z,17.01
2019-04-18T08:55:48.236Z,17.03
2019-04-18T08:56:48.270Z,17.07
2019-04-18T08:57:48.305Z,17.19
2019-04-18T08:58:48.341Z,17.23
2019-04-18T08:59:48.372Z,17.34
2019-04-18T09:00:48.455Z,17.48
2019-04-18T09:01:48.443Z,17.55
2019-04-18T09:02:48.497Z,17.40
2019-04-18T09:03:48.508Z,17.58
2019-04-18T09:04:48.877Z,17.55
2019-04-18T09:05:49.819Z,17.66
2019-04-18T09:06:51.207Z,17.81
2019-04-18T09:07:51.694Z,17.71
2019-04-18T09:08:51.687Z,17.89
2019-04-18T09:09:48.879Z,17.99
2019-04-18T09:10:49.214Z,18.20
2019-04-18T09:11:49.072Z,18.32
2019-04-18T09:12:48.816Z,18.42
2019-04-18T09:13:55.357Z,18.32
2019-04-18T09:14:49.118Z,18.55
2019-04-18T09:15:49.189Z,18.70
2019-04-18T09:16:49.116Z,18.67
2019-04-18T09:17:49.161Z,18.80
2019-04-18T09:18:49.405Z,19.04
2019-04-18T09:19:49.209Z,18.88
2019-04-18T09:20:49.480Z,18.72
2019-04-18T09:21:52.568Z,18.90
2019-04-18T09:22:49.951Z,19.13
2019-04-18T09:23:49.898Z,19.16
2019-04-18T09:24:52.283Z,19.19
2019-04-18T09:25:49.827Z,18.98
2019-04-18T09:27:49.355Z,19.06
2019-04-18T09:28:52.149Z,19.13
2019-04-18T09:29:54.269Z,19.08
2019-04-18T09:30:49.448Z,19.36
2019-04-18T09:31:49.482Z,19.55
2019-04-18T09:32:49.519Z,20.13
2019-04-18T09:34:49.593Z,21.58
2019-04-18T09:35:53.044Z,22.45
2019-04-18T09:37:49.699Z,23.75
2019-04-18T09:38:49.736Z,24.49
2019-04-18T09:39:51.664Z,25.08
2019-04-18T09:40:49.814Z,25.55
2019-04-18T09:41:49.851Z,25.33
2019-04-18T09:42:50.115Z,25.10
2019-04-18T09:43:50.653Z,25.15
2019-04-18T09:44:53.864Z,25.15
2019-04-18T09:45:50.012Z,25.85
2019-04-18T09:46:50.059Z,26.13
2019-04-18T09:47:53.368Z,26.66
2019-04-18T09:49:50.189Z,27.12
2019-04-18T09:50:50.213Z,27.51
2019-04-18T09:51:50.257Z,27.74
2019-04-18T09:52:50.301Z,28.18
2019-04-18T09:53:50.341Z,28.18
2019-04-18T09:54:50.385Z,27.78
2019-04-18T09:56:50.470Z,28.73
2019-04-18T09:57:50.515Z,28.89
2019-04-18T09:58:50.582Z,28.93
2019-04-18T09:59:50.618Z,28.74
2019-04-18T10:00:50.850Z,29.45
2019-04-18T10:01:53.668Z,30.19
2019-04-18T10:02:57.505Z,31.09
2019-04-18T10:03:50.986Z,31.25
2019-04-18T10:04:50.945Z,31.17
2019-04-18T10:05:54.710Z,31.34
2019-04-18T10:07:51.807Z,30.69
2019-04-18T10:08:51.440Z,29.83
2019-04-18T10:09:51.060Z,29.73
2019-04-18T10:11:51.649Z,30.01
2019-04-18T10:12:51.197Z,30.58
2019-04-18T10:13:51.244Z,30.92
2019-04-18T10:15:15.208Z,30.37
2019-04-18T10:15:58.836Z,30.53
2019-04-18T10:16:51.385Z,31.28
2019-04-18T10:17:51.433Z,31.47
2019-04-18T10:18:51.481Z,31.31
2019-04-18T10:21:36.757Z,31.04
2019-04-18T10:22:34.183Z,31.89
2019-04-18T10:23:34.229Z,32.08
2019-04-18T10:24:34.277Z,32.55
2019-04-18T10:25:36.229Z,32.99
2019-04-18T10:26:36.996Z,33.09
2019-04-18T10:27:35.034Z,32.40
2019-04-18T10:29:34.521Z,30.60
2019-04-18T10:31:17.457Z,31.19
2019-04-18T10:32:17.176Z,31.14
2019-04-18T10:33:23.513Z,31.20
2019-04-18T10:34:17.956Z,31.13
2019-04-18T10:38:17.468Z,31.26
2019-04-18T10:39:17.580Z,31.57
2019-04-18T10:41:47.727Z,32.01
2019-04-18T10:42:47.754Z,31.80
2019-04-18T10:43:47.803Z,31.39
2019-04-18T10:44:47.851Z,32.22
2019-04-18T10:45:47.902Z,32.79
2019-04-18T10:46:47.950Z,32.41
2019-04-18T10:47:47.998Z,32.25
2019-04-18T10:48:48.048Z,31.95
2019-04-18T10:49:48.099Z,30.35
2019-04-18T10:51:48.196Z,29.60
2019-04-18T10:52:48.246Z,30.17
2019-04-18T10:53:48.295Z,29.33
2019-04-18T10:54:51.268Z,30.24
2019-04-18T10:55:48.394Z,30.43
2019-04-18T10:56:48.443Z,30.80
2019-04-18T10:57:48.493Z,31.17
2019-04-18T10:58:48.544Z,30.88
2019-04-18T10:59:48.592Z,30.69
2019-04-18T11:01:49.462Z,29.74
2019-04-18T11:02:48.772Z,29.64
2019-04-18T11:04:48.841Z,29.63
2019-04-18T11:07:49.012Z,30.92
2019-04-18T11:08:49.043Z,31.12
2019-04-18T11:09:49.091Z,31.14
2019-04-18T11:10:49.164Z,31.06
2019-04-18T11:12:49.875Z,32.10
2019-04-18T11:15:49.390Z,32.67
2019-04-18T11:16:49.446Z,32.87
2019-04-18T11:20:49.645Z,32.51
2019-04-18T11:21:50.499Z,32.14
2019-04-18T11:22:49.743Z,31.69
2019-04-18T11:23:50.216Z,31.68
2019-04-18T11:24:49.870Z,32.03
2019-04-18T11:25:52.022Z,33.07
2019-04-18T11:26:49.966Z,33.01
2019-04-18T11:27:49.994Z,33.01
2019-04-18T11:28:50.042Z,33.07
2019-04-18T11:30:58.608Z,32.25
2019-04-18T11:31:50.192Z,32.88
2019-04-18T11:32:50.244Z,33.01
2019-04-18T11:33:50.293Z,32.44
2019-04-18T11:34:50.344Z,31.43
2019-04-18T11:35:50.394Z,31.54
2019-04-18T11:36:50.453Z,32.11
2019-04-18T11:37:50.497Z,32.41
2019-04-18T11:38:50.546Z,32.65
2019-04-18T11:39:50.596Z,32.82
2019-04-18T11:40:50.674Z,33.01
2019-04-18T11:41:50.723Z,31.44
2019-04-18T11:42:50.771Z,31.23
2019-04-18T11:43:52.077Z,31.92
2019-04-18T11:44:50.849Z,31.89
2019-04-18T11:45:51.229Z,32.30
2019-04-18T11:46:50.978Z,33.34
2019-04-18T11:47:51.005Z,33.88
2019-04-18T11:48:51.052Z,32.57
2019-04-18T11:49:51.102Z,32.11
2019-04-18T11:50:51.354Z,31.89
2019-04-18T11:51:51.787Z,32.23
2019-04-18T11:53:51.706Z,34.06
2019-04-18T11:54:51.356Z,32.92
2019-04-18T11:55:51.403Z,33.42
2019-04-18T11:56:51.461Z,33.06
2019-04-18T11:57:52.155Z,33.84
2019-04-18T12:00:24.256Z,31.46
2019-04-18T12:01:30.639Z,30.73
2019-04-18T12:05:52.906Z,31.76
2019-04-18T12:06:52.955Z,31.28
2019-04-18T12:07:53.006Z,31.25
2019-04-18T12:08:53.055Z,32.51
2019-04-18T12:09:53.106Z,32.82
2019-04-18T12:10:53.156Z,33.66
2019-04-18T12:15:17.142Z,33.11
2019-04-18T12:16:16.792Z,33.76
2019-04-18T12:17:16.843Z,34.66
2019-04-18T12:18:16.893Z,35.56
2019-04-18T12:19:16.944Z,33.53
2019-04-18T12:20:16.994Z,32.59
2019-04-18T12:21:17.045Z,32.23
2019-04-18T12:25:16.327Z,30.24
2019-04-18T12:33:43.805Z,32.74
2019-04-18T12:34:43.861Z,32.85
2019-04-18T12:35:44.158Z,33.03
2019-04-18T12:37:44.055Z,32.04
2019-04-18T12:53:58.197Z,33.26
2019-04-18T12:54:54.334Z,34.15
2019-04-18T12:55:57.783Z,34.12
2019-04-18T12:56:54.435Z,33.73
2019-04-18T12:57:54.486Z,33.45
2019-04-18T12:58:54.540Z,34.56
2019-04-18T12:59:54.590Z,35.23
2019-04-18T13:00:54.732Z,35.77
2019-04-18T13:01:54.694Z,35.16
2019-04-18T13:02:54.746Z,35.60
2019-04-18T13:03:54.798Z,35.84
2019-04-18T13:04:54.848Z,36.17
2019-04-18T13:05:57.860Z,36.94
2019-04-18T13:06:54.953Z,37.25
2019-04-18T13:07:55.006Z,37.02
2019-04-18T13:08:55.057Z,36.91
2019-04-18T13:09:55.109Z,36.72
2019-04-18T13:10:55.161Z,36.57
2019-04-18T13:11:55.243Z,36.72
2019-04-18T13:12:55.495Z,36.60
2019-04-18T13:13:55.342Z,35.62
2019-04-18T13:14:55.418Z,35.87
2019-04-18T13:15:55.655Z,36.50
2019-04-18T13:16:55.476Z,36.46
2019-04-18T13:17:55.523Z,36.94
2019-04-18T13:18:55.578Z,37.46
2019-04-18T13:19:55.629Z,35.77
2019-04-18T13:20:55.915Z,33.69
2019-04-18T13:38:15.809Z,37.29
2019-04-18T13:39:16.295Z,36.91
2019-04-18T13:41:15.690Z,35.87
2019-04-18T13:43:15.760Z,35.50
2019-04-18T13:44:15.820Z,33.93
2019-04-18T13:45:15.863Z,32.66
2019-04-18T13:46:15.916Z,32.92
2019-04-18T13:47:15.966Z,33.41
2019-04-18T13:48:16.019Z,33.19
2019-04-18T13:49:16.070Z,33.01
2019-04-18T13:50:16.395Z,32.75
2019-04-18T13:51:16.173Z,32.06
2019-04-18T13:52:16.224Z,32.57
2019-04-18T13:53:17.745Z,33.07
2019-04-18T13:54:16.326Z,33.23
2019-04-18T13:55:16.375Z,34.35
2019-04-18T13:56:16.535Z,35.33
2019-04-18T13:57:16.479Z,36.22
2019-04-18T13:58:16.530Z,35.25
2019-04-18T13:59:16.584Z,34.69
2019-04-18T14:00:17.295Z,35.41
2019-04-18T14:01:16.682Z,35.72
2019-04-18T14:02:20.547Z,36.49
2019-04-18T14:03:16.788Z,37.13
2019-04-18T14:04:16.836Z,37.59
2019-04-18T14:05:16.887Z,37.32
2019-04-18T14:06:16.938Z,37.21
2019-04-18T14:07:16.987Z,37.62
2019-04-18T14:08:17.151Z,37.22
2019-04-18T14:09:17.096Z,38.34
2019-04-18T14:10:17.147Z,37.96
2019-04-18T14:11:17.191Z,37.44
2019-04-18T14:12:17.242Z,38.03
2019-04-18T14:13:17.294Z,37.02
2019-04-18T14:14:17.344Z,36.98
2019-04-18T14:15:17.395Z,37.07
2019-04-18T14:16:17.449Z,37.55
2019-04-18T14:17:17.499Z,37.59
2019-04-18T14:18:18.050Z,37.69
2019-04-18T14:19:17.608Z,38.25
2019-04-18T14:20:17.651Z,38.47
2019-04-18T14:21:17.703Z,37.74
2019-04-18T14:22:17.755Z,37.79
2019-04-18T14:23:17.809Z,37.96
2019-04-18T14:24:17.861Z,37.59
2019-04-18T14:25:17.909Z,37.50
2019-04-18T14:26:17.960Z,36.64
2019-04-18T14:27:18.012Z,37.43
2019-04-18T14:28:19.899Z,36.90
2019-04-18T14:29:18.116Z,37.84
2019-04-18T14:30:18.167Z,37.78
2019-04-18T14:31:18.217Z,37.03
2019-04-18T14:32:32.691Z,37.82
2019-04-18T14:33:18.320Z,38.37
2019-04-18T14:34:18.372Z,39.09
2019-04-18T14:35:18.422Z,37.28
2019-04-18T14:36:19.068Z,37.27
2019-04-18T14:37:18.526Z,37.06
2019-04-18T14:38:18.576Z,34.54
2019-04-18T14:39:18.630Z,33.65
2019-04-18T14:40:18.679Z,34.05
2019-04-18T14:41:18.732Z,34.72
2019-04-18T14:42:18.785Z,34.85
2019-04-18T14:43:21.004Z,36.25
2019-04-18T14:44:20.616Z,37.44
2019-04-18T14:45:19.002Z,38.15
2019-04-18T14:46:18.985Z,36.59
2019-04-18T14:47:19.036Z,37.21
2019-04-18T14:48:19.282Z,37.36
2019-04-18T14:49:19.193Z,37.06
2019-04-18T14:50:19.190Z,36.81
2019-04-18T14:51:19.240Z,36.69
2019-04-18T14:52:19.290Z,36.94
2019-04-18T14:53:19.341Z,37.57
2019-04-18T14:54:19.396Z,38.09
2019-04-18T14:55:19.479Z,38.61
2019-04-18T14:56:19.495Z,38.42
2019-04-18T14:57:19.547Z,38.83
2019-04-18T14:58:19.599Z,38.98
2019-04-18T14:59:20.004Z,39.44
2019-04-18T15:00:19.700Z,39.63
2019-04-18T15:01:19.912Z,39.81